Time;durP1;ratioP1;P1;durP2;ratioP2;P2;SDS_P1;SDS_P2;PMS_P1;PMS_P2;Temp;Humidity;BMP_temperature;BMP_pressure;BME280_temperature;BME280_humidity;BME280_pressure;Samples;Min_cycle;Max_cycle;Signal;HPM_P1;HPM_P2
2021/12/20 00:00:52;;;;;;;4.43;3.20;;;;;;;0.03;86.88;100502.72;4932960;29;20899;-85
2021/12/20 00:03:18;;;;;;;4.27;3.43;;;;;;;0.01;86.78;100496.72;4932178;29;20251;-84
2021/12/20 00:05:44;;;;;;;5.40;4.10;;;;;;;-0.01;86.55;100495.00;4929702;29;20313;-85
2021/12/20 00:08:09;;;;;;;5.57;3.80;;;;;;;-0.05;86.28;100479.56;4930179;28;20529;-85
2021/12/20 00:10:35;;;;;;;6.60;4.00;;;;;;;-0.05;86.35;100488.16;4930857;29;20229;-85
2021/12/20 00:13:00;;;;;;;5.90;4.20;;;;;;;-0.05;86.32;100490.72;4935169;28;20205;-86
2021/12/20 00:15:26;;;;;;;6.17;4.37;;;;;;;-0.07;86.28;100487.28;4914028;29;20229;-86
2021/12/20 00:17:52;;;;;;;5.20;3.70;;;;;;;-0.09;86.11;100477.84;4912416;29;20633;-86
2021/12/20 00:20:18;;;;;;;5.40;3.43;;;;;;;-0.08;85.84;100474.38;4915367;29;20213;-84
2021/12/20 00:22:44;;;;;;;4.60;3.78;;;;;;;-0.12;85.81;100473.56;4913756;29;20952;-85
2021/12/20 00:25:10;;;;;;;5.77;3.50;;;;;;;-0.08;85.85;100479.53;4918701;29;20272;-85
2021/12/20 00:27:36;;;;;;;4.15;3.50;;;;;;;-0.07;86.05;100468.38;4917189;29;20755;-85
2021/12/20 00:30:04;;;;;;;5.13;3.70;;;;;;;-0.02;86.00;100469.19;4917311;29;20695;-85
2021/12/20 00:32:29;;;;;;;5.47;3.88;;;;;;;0.01;85.60;100466.59;4922375;29;20549;-84
2021/12/20 00:34:55;;;;;;;7.53;3.67;;;;;;;0.03;85.57;100466.56;4934887;29;20729;-84
2021/12/20 00:40:21;;;;;;;6.05;3.45;;;;;;;0.08;85.72;100463.09;4934301;29;20462;-85
2021/12/20 00:42:49;;;;;;;4.88;4.47;;;;;;;0.11;85.39;100473.41;4916639;29;20719;-84
2021/12/20 00:45:15;;;;;;;6.10;4.20;;;;;;;0.17;85.71;100480.25;4908972;29;20264;-85
2021/12/20 00:47:41;;;;;;;9.30;3.03;;;;;;;0.19;85.27;100476.78;4911391;29;20210;-86
2021/12/20 00:50:09;;;;;;;8.25;3.78;;;;;;;0.20;85.46;100468.16;4899279;29;20230;-85
2021/12/20 00:52:34;;;;;;;5.20;3.47;;;;;;;0.23;85.41;100469.88;4911369;29;20205;-85
2021/12/20 00:55:00;;;;;;;4.80;4.13;;;;;;;0.25;85.15;100467.28;4908218;29;20206;-85
2021/12/20 00:57:26;;;;;;;6.90;4.10;;;;;;;0.26;85.33;100463.81;4911213;29;20220;-87
2021/12/20 00:59:51;;;;;;;7.20;4.37;;;;;;;0.29;85.38;100458.63;4911525;29;20458;-85
2021/12/20 01:02:17;;;;;;;6.57;5.00;;;;;;;0.43;85.48;100457.66;4917053;29;20758;-86
2021/12/20 01:04:46;;;;;;;5.10;4.10;;;;;;;0.43;85.23;100465.41;4913134;29;20202;-85
2021/12/20 01:07:39;;;;;;;3.85;3.50;;;;;;;0.43;85.36;100457.66;4935308;29;20276;-85
2021/12/20 01:10:08;;;;;;;5.38;3.65;;;;;;;0.44;85.26;100448.19;4907565;29;20780;-85
2021/12/20 01:12:44;;;;;;;4.55;3.85;;;;;;;0.44;85.17;100451.59;4910051;29;20213;-86
2021/12/20 01:15:22;;;;;;;7.20;4.30;;;;;;;0.42;85.10;100450.75;4911676;29;20328;-85
2021/12/20 01:17:48;;;;;;;4.07;3.63;;;;;;;0.41;85.29;100448.22;4907960;29;20202;-84
2021/12/20 01:20:15;;;;;;;6.70;3.67;;;;;;;0.40;85.03;100446.47;4911599;29;20644;-85
2021/12/20 01:22:42;;;;;;;4.68;3.30;;;;;;;0.39;84.75;100455.09;4914885;29;20214;-85
2021/12/20 01:25:08;;;;;;;4.15;3.47;;;;;;;0.38;84.99;100461.16;4913821;29;20201;-85
2021/12/20 01:27:34;;;;;;;6.10;3.83;;;;;;;0.38;84.78;100461.16;4921593;29;20206;-85
2021/12/20 01:30:06;;;;;;;5.10;3.23;;;;;;;0.39;84.79;100461.13;4924476;29;20236;-86
2021/12/20 01:32:32;;;;;;;7.75;6.18;;;;;;;0.59;84.65;100462.66;4922322;29;20495;-85
2021/12/20 01:34:58;;;;;;;7.57;6.77;;;;;;;0.55;84.45;100461.00;4919053;29;20290;-85
2021/12/20 01:37:24;;;;;;;6.47;5.13;;;;;;;0.52;84.48;100463.63;4915461;29;20302;-85
2021/12/20 01:39:49;;;;;;;3.90;3.60;;;;;;;0.50;84.58;100458.44;4917899;29;20209;-85
2021/12/20 01:42:40;;;;;;;5.87;5.23;;;;;;;0.52;84.51;100455.88;4924822;29;20205;-84
2021/12/20 01:45:14;;;;;;;8.55;4.20;;;;;;;0.54;84.35;100464.44;4926405;29;20198;-86
2021/12/20 01:48:12;;;;;;;4.55;3.58;;;;;;;0.56;84.32;100449.78;4925083;29;20225;-85
2021/12/20 01:51:45;;;;;;;5.78;3.60;;;;;;;0.58;84.30;100463.56;4939803;29;20260;-85
2021/12/20 01:54:09;;;;;;;5.65;3.78;;;;;;;0.53;84.13;100455.84;4934086;29;20210;-85
2021/12/20 01:56:45;;;;;;;3.43;3.10;;;;;;;0.52;84.15;100448.97;4934130;29;20203;-84
2021/12/20 01:59:11;;;;;;;5.65;3.65;;;;;;;0.52;84.27;100445.53;4929391;29;20213;-84
2021/12/20 02:01:44;;;;;;;6.47;4.25;;;;;;;0.52;84.22;100450.69;4931235;29;20197;-86
2021/12/20 02:04:10;;;;;;;6.45;4.50;;;;;;;0.47;84.24;100448.13;4931398;29;20217;-86
2021/12/20 02:06:40;;;;;;;3.50;3.20;;;;;;;0.46;84.35;100446.44;4917057;29;20234;-85
2021/12/20 02:09:09;;;;;;;8.57;5.00;;;;;;;0.44;84.39;100446.44;4913064;29;20251;-84
2021/12/20 02:11:39;;;;;;;6.13;3.75;;;;;;;0.43;84.38;100451.59;4896236;29;20208;-85
2021/12/20 02:14:06;;;;;;;6.43;4.63;;;;;;;0.40;84.52;100449.06;4912959;29;20344;-85
2021/12/20 02:16:33;;;;;;;6.22;3.95;;;;;;;0.43;84.43;100444.75;4937398;29;20862;-84
2021/12/20 02:19:07;;;;;;;6.63;4.90;;;;;;;0.44;84.55;100443.84;4933662;29;20208;-84
2021/12/20 02:21:34;;;;;;;7.22;4.15;;;;;;;0.47;84.17;100442.97;4908941;29;20579;-85
2021/12/20 02:23:59;;;;;;;7.13;4.55;;;;;;;0.50;84.55;100436.91;4930049;29;20220;-83
2021/12/20 02:26:25;;;;;;;4.53;3.40;;;;;;;0.49;84.52;100430.00;4930588;29;20201;-85
2021/12/20 02:28:56;;;;;;;4.55;4.15;;;;;;;0.50;84.60;100432.59;4934226;29;20694;-85
2021/12/20 02:39:26;;;;;;;6.03;4.10;;;;;;;0.53;84.54;100422.22;4929533;29;20288;-85
2021/12/20 02:41:51;;;;;;;7.50;6.25;;;;;;;0.53;84.54;100427.41;4929898;29;20315;-84
2021/12/20 02:44:19;;;;;;;7.20;5.53;;;;;;;0.53;84.40;100426.56;4932547;29;20216;-85
2021/12/20 02:47:08;;;;;;;5.47;4.47;;;;;;;0.53;84.64;100426.56;4926908;29;20688;-85
2021/12/20 02:49:35;;;;;;;8.70;5.45;;;;;;;0.52;84.47;100420.53;4934167;29;20233;-85
2021/12/20 02:52:04;;;;;;;6.53;5.03;;;;;;;0.54;84.50;100413.63;4927886;29;20214;-85
2021/12/20 02:54:30;;;;;;;8.27;4.82;;;;;;;0.57;84.62;100413.59;4930904;29;20214;-85
2021/12/20 02:56:56;;;;;;;7.53;5.30;;;;;;;0.57;84.64;100411.00;4928963;29;20271;-85
2021/12/20 02:59:22;;;;;;;6.00;4.20;;;;;;;0.59;84.72;100413.56;4932919;29;20546;-85
2021/12/20 03:01:57;;;;;;;10.02;6.40;;;;;;;0.70;84.83;100408.28;4933717;29;20502;-85
2021/12/20 03:04:23;;;;;;;8.25;6.65;;;;;;;0.68;84.60;100415.22;4931488;29;20252;-84
2021/12/20 03:06:54;;;;;;;9.43;6.43;;;;;;;0.65;84.77;100422.13;4934374;29;20239;-85
2021/12/20 03:09:23;;;;;;;10.10;6.20;;;;;;;0.64;84.94;100425.56;4932392;29;20918;-85
2021/12/20 03:11:55;;;;;;;7.43;5.55;;;;;;;0.61;84.72;100425.59;4934413;28;20212;-84
2021/12/20 03:14:35;;;;;;;6.57;5.40;;;;;;;0.57;84.62;100423.06;4933514;29;20240;-84
2021/12/20 03:17:01;;;;;;;6.32;5.25;;;;;;;0.55;84.71;100425.66;4937071;29;20216;-84
2021/12/20 03:19:28;;;;;;;10.07;5.23;;;;;;;0.57;84.84;100429.09;4933675;29;20212;-85
2021/12/20 03:21:53;;;;;;;9.77;5.40;;;;;;;0.58;84.78;100417.88;4937688;29;20197;-85
2021/12/20 03:24:19;;;;;;;10.20;5.60;;;;;;;0.61;84.81;100411.81;4937969;29;20795;-85
2021/12/20 03:26:45;;;;;;;11.60;5.57;;;;;;;0.63;84.60;100412.66;4957202;29;20452;-84
2021/12/20 03:29:11;;;;;;;7.40;5.23;;;;;;;0.63;84.60;100418.69;4941844;29;20261;-85
2021/12/20 03:31:37;;;;;;;10.68;7.55;;;;;;;0.64;84.74;100422.13;4955456;29;20465;-85
2021/12/20 03:34:04;;;;;;;8.20;5.07;;;;;;;0.65;84.60;100410.94;4954977;29;20277;-85
2021/12/20 03:36:30;;;;;;;11.02;5.38;;;;;;;0.68;84.48;100418.66;4934380;29;20197;-85
2021/12/20 03:38:55;;;;;;;6.72;5.10;;;;;;;0.69;84.81;100416.91;4934933;29;20209;-85
2021/12/20 03:41:22;;;;;;;9.17;5.50;;;;;;;0.69;84.40;100414.31;4936508;29;20268;-86
2021/12/20 03:43:47;;;;;;;10.90;5.60;;;;;;;0.68;84.51;100407.47;4932466;29;20789;-85
2021/12/20 03:46:13;;;;;;;10.27;6.30;;;;;;;0.69;84.51;100404.00;4935562;29;20423;-86
2021/12/20 03:48:39;;;;;;;10.40;5.93;;;;;;;0.70;84.43;100410.84;4928906;29;20679;-85
2021/12/20 03:51:05;;;;;;;8.37;4.87;;;;;;;0.69;84.47;100412.59;4928605;28;20567;-85
2021/12/20 03:53:33;;;;;;;6.38;4.97;;;;;;;0.70;84.71;100419.47;4925780;29;20292;-84
2021/12/20 03:55:59;;;;;;;9.27;4.60;;;;;;;0.69;84.44;100410.00;4937350;29;20200;-85
2021/12/20 03:58:28;;;;;;;9.75;5.22;;;;;;;0.69;84.35;100416.91;4932689;29;20220;-85
2021/12/20 04:00:59;;;;;;;10.40;6.10;;;;;;;0.71;84.47;100413.44;4929283;29;20520;-85
2021/12/20 04:03:25;;;;;;;7.53;4.93;;;;;;;0.73;84.49;100413.41;4932153;29;20205;-85
2021/12/20 04:05:51;;;;;;;8.60;5.20;;;;;;;0.71;84.25;100412.59;4937757;29;20228;-84
2021/12/20 04:08:18;;;;;;;6.53;4.85;;;;;;;0.71;84.38;100410.84;4932326;29;20346;-85
2021/12/20 04:10:43;;;;;;;5.57;4.15;;;;;;;0.70;84.71;100408.28;4926949;29;20710;-84
2021/12/20 04:13:09;;;;;;;9.07;5.00;;;;;;;0.72;84.55;100409.13;4935835;28;20368;-85
2021/12/20 04:15:36;;;;;;;6.55;5.35;;;;;;;0.71;84.36;100407.41;4923931;29;20336;-84
2021/12/20 04:18:02;;;;;;;8.23;5.40;;;;;;;0.65;84.06;100400.59;4931239;29;20206;-87
2021/12/20 04:20:28;;;;;;;5.45;4.38;;;;;;;0.58;83.92;100401.50;4929206;29;20218;-85
2021/12/20 04:22:53;;;;;;;6.40;4.30;;;;;;;0.54;83.71;100399.81;4927382;29;20562;-83
2021/12/20 04:25:18;;;;;;;5.10;4.27;;;;;;;0.50;84.21;100398.16;4932817;29;20209;-84
2021/12/20 04:27:44;;;;;;;4.57;4.27;;;;;;;0.51;84.02;100402.44;4923116;29;20260;-84
2021/12/20 04:30:11;;;;;;;6.93;4.30;;;;;;;0.52;83.91;100392.09;4927079;29;20253;-85
2021/12/20 04:32:46;;;;;;;5.20;4.30;;;;;;;0.54;83.89;100392.94;4926879;29;20675;-86
2021/12/20 04:35:14;;;;;;;7.35;4.80;;;;;;;0.55;83.99;100394.66;4927817;29;20210;-85
2021/12/20 04:37:42;;;;;;;4.55;3.53;;;;;;;0.54;83.93;100392.94;4927539;29;20288;-86
2021/12/20 04:40:12;;;;;;;7.43;3.72;;;;;;;0.53;83.80;100390.34;4926048;29;20960;-86
2021/12/20 04:42:37;;;;;;;9.02;4.40;;;;;;;0.54;83.85;100382.59;4936958;28;20387;-85
2021/12/20 04:45:04;;;;;;;4.07;3.43;;;;;;;0.57;83.59;100390.31;4949340;28;20798;-84
2021/12/20 04:47:29;;;;;;;8.52;5.15;;;;;;;0.59;83.76;100406.66;4952666;28;21261;-83
2021/12/20 04:49:55;;;;;;;5.93;4.50;;;;;;;0.61;83.77;100401.47;4605490;28;10000653;-86
2021/12/20 04:52:20;;;;;;;9.70;6.27;;;;;;;0.61;83.94;100404.91;4943606;28;20235;-85
2021/12/20 04:54:46;;;;;;;5.07;4.23;;;;;;;0.61;83.74;100399.75;4951250;28;20207;-85
2021/12/20 04:57:11;;;;;;;5.10;4.20;;;;;;;0.61;83.89;100404.91;4947425;28;20310;-85
2021/12/20 04:59:37;;;;;;;4.50;4.10;;;;;;;0.58;83.76;100414.44;4946697;28;20192;-86
2021/12/20 05:02:03;;;;;;;6.07;5.40;;;;;;;0.64;83.74;100409.19;4950678;28;20502;-85
2021/12/20 05:04:28;;;;;;;7.20;5.10;;;;;;;0.58;83.54;100410.13;4946256;28;20499;-86
2021/12/20 05:06:53;;;;;;;6.20;4.47;;;;;;;0.53;83.60;100406.72;4954916;28;20491;-85
2021/12/20 05:09:19;;;;;;;6.57;5.23;;;;;;;0.50;83.68;100411.06;4949884;28;20223;-85
2021/12/20 05:11:50;;;;;;;8.23;5.90;;;;;;;0.46;83.76;100405.09;4954092;28;20204;-85
2021/12/20 05:14:17;;;;;;;7.03;4.20;;;;;;;0.44;83.57;100405.09;4932331;28;20249;-85
2021/12/20 05:16:43;;;;;;;7.05;5.78;;;;;;;0.42;83.74;100408.56;4958972;28;20212;-85
2021/12/20 05:19:08;;;;;;;6.00;4.47;;;;;;;0.39;83.84;100414.59;4962276;28;20215;-85
2021/12/20 05:21:34;;;;;;;6.93;4.03;;;;;;;0.41;83.81;100409.44;4955475;28;20675;-86
2021/12/20 05:23:59;;;;;;;7.30;5.30;;;;;;;0.42;83.90;100403.38;4948987;28;20649;-85
2021/12/20 05:26:26;;;;;;;5.33;4.57;;;;;;;0.44;83.88;100406.81;4957131;28;20538;-85
2021/12/20 05:28:52;;;;;;;6.15;4.63;;;;;;;0.46;83.76;100411.97;4953813;28;20212;-85
2021/12/20 05:31:26;;;;;;;5.87;4.80;;;;;;;0.46;83.78;100405.09;4953881;28;20211;-85
2021/12/20 05:33:52;;;;;;;6.93;4.85;;;;;;;0.49;83.86;100406.75;4972624;28;20196;-84
2021/12/20 05:36:18;;;;;;;8.20;4.80;;;;;;;0.51;83.84;100405.03;4947081;28;20753;-85
2021/12/20 05:38:43;;;;;;;7.70;5.10;;;;;;;0.49;83.81;100409.34;4960213;28;20599;-85
2021/12/20 05:41:09;;;;;;;7.03;4.77;;;;;;;0.47;83.69;100396.44;4956030;28;20690;-84
2021/12/20 05:43:34;;;;;;;6.13;5.47;;;;;;;0.46;83.80;100405.09;4955028;28;20209;-86
2021/12/20 05:46:00;;;;;;;5.33;4.20;;;;;;;0.41;83.69;100407.72;4960882;28;20204;-85
2021/12/20 05:48:26;;;;;;;6.45;5.53;;;;;;;0.37;83.75;100406.00;4961280;28;20781;-84
2021/12/20 05:50:52;;;;;;;9.13;5.73;;;;;;;0.36;83.95;100393.97;4943657;28;20342;-85
2021/12/20 05:53:17;;;;;;;10.57;7.93;;;;;;;0.36;83.92;100399.13;4958395;28;20882;-85
2021/12/20 05:55:43;;;;;;;5.70;4.70;;;;;;;0.37;83.96;100402.56;4952008;28;20216;-85
2021/12/20 05:58:08;;;;;;;5.67;5.00;;;;;;;0.34;83.75;100407.78;4970887;28;20207;-86
2021/12/20 06:00:34;;;;;;;8.07;5.47;;;;;;;0.31;83.81;100418.13;4961559;28;20531;-86
2021/12/20 06:03:05;;;;;;;6.63;5.77;;;;;;;0.30;84.23;100408.66;4958022;28;20205;-87
2021/12/20 06:05:31;;;;;;;5.00;4.50;;;;;;;0.30;83.73;100406.06;4965234;28;20212;-87
2021/12/20 06:08:02;;;;;;;7.60;4.37;;;;;;;0.30;83.78;100412.13;4957032;28;20234;-85
2021/12/20 06:10:28;;;;;;;5.10;4.60;;;;;;;0.31;83.81;100418.13;4960183;28;20331;-86
2021/12/20 06:12:53;;;;;;;4.70;3.93;;;;;;;0.31;83.74;100418.13;4961835;28;20224;-86
2021/12/20 06:15:19;;;;;;;7.37;4.43;;;;;;;0.29;83.84;100420.72;4946086;28;20634;-86
2021/12/20 06:17:44;;;;;;;5.30;4.23;;;;;;;0.29;83.90;100425.88;4957488;28;20208;-87
2021/12/20 06:20:12;;;;;;;9.20;4.40;;;;;;;0.28;83.67;100413.84;4972799;28;20848;-87
2021/12/20 06:22:38;;;;;;;6.90;5.03;;;;;;;0.27;83.84;100414.72;4973102;28;20261;-85
2021/12/20 06:25:05;;;;;;;5.07;4.13;;;;;;;0.25;83.82;100415.63;4966921;28;20220;-86
2021/12/20 06:27:30;;;;;;;4.75;4.03;;;;;;;0.20;83.84;100413.91;4973751;28;20212;-85
2021/12/20 06:30:04;;;;;;;5.60;5.10;;;;;;;0.21;84.07;100418.19;4969853;28;20815;-85
2021/12/20 06:32:29;;;;;;;7.72;6.38;;;;;;;0.36;84.09;100406.03;4953772;28;20508;-84
2021/12/20 06:34:55;;;;;;;7.63;5.10;;;;;;;0.32;84.01;100409.50;4943936;28;20212;-85
2021/12/20 06:37:24;;;;;;;8.57;5.00;;;;;;;0.27;83.74;100408.69;4965283;28;20253;-85
2021/12/20 06:39:53;;;;;;;6.63;4.70;;;;;;;0.24;83.87;100414.72;4973423;28;20464;-85
2021/12/20 06:42:19;;;;;;;5.47;4.43;;;;;;;0.21;83.63;100418.19;4966496;28;20208;-85
2021/12/20 06:44:45;;;;;;;8.03;4.83;;;;;;;0.13;83.62;100417.41;4968073;28;20224;-85
2021/12/20 06:47:11;;;;;;;7.60;4.10;;;;;;;0.08;83.77;100415.72;4975962;28;20208;-84
2021/12/20 06:49:46;;;;;;;7.47;4.60;;;;;;;0.04;83.82;100411.47;4966602;28;20302;-85
2021/12/20 06:52:15;;;;;;;7.80;4.57;;;;;;;0.03;83.99;100420.06;4952883;28;20209;-85
2021/12/20 06:54:50;;;;;;;6.43;4.47;;;;;;;0.01;83.78;100422.69;4972449;28;20193;-86
2021/12/20 06:57:20;;;;;;;9.27;5.00;;;;;;;0.02;83.77;100433.88;4970906;28;20189;-85
2021/12/20 06:59:46;;;;;;;6.35;5.03;;;;;;;0.02;83.71;100420.94;4972310;28;20686;-86
2021/12/20 07:02:12;;;;;;;6.38;5.25;;;;;;;0.04;84.05;100430.41;4964821;28;20223;-86
2021/12/20 07:04:41;;;;;;;7.40;4.93;;;;;;;0.05;84.06;100426.09;4959510;28;20213;-85
2021/12/20 07:07:16;;;;;;;9.45;4.55;;;;;;;0.06;84.00;100426.09;4980885;28;20228;-85
2021/12/20 07:10:06;;;;;;;7.32;5.28;;;;;;;0.08;84.01;100426.94;4985319;28;20343;-86
2021/12/20 07:12:36;;;;;;;7.53;5.45;;;;;;;0.05;83.96;100414.03;4979139;28;20243;-86
2021/12/20 07:15:16;;;;;;;;;;;;;;;;;;;;;
2021/12/20 07:17:54;;;;;;;8.45;5.57;;;;;;;0.03;83.98;100425.22;4969475;28;20227;-86
2021/12/20 07:20:19;;;;;;;6.90;4.90;;;;;;;0.03;84.16;100422.66;4961137;28;21245;-87
2021/12/20 07:22:45;;;;;;;8.57;6.17;;;;;;;0.01;84.46;100427.84;4957108;28;20227;-84
2021/12/20 07:25:10;;;;;;;8.20;6.67;;;;;;;0.01;84.23;100435.59;4942683;28;20303;-85
2021/12/20 07:27:40;;;;;;;11.30;6.13;;;;;;;0.02;84.13;100429.53;4951341;28;20473;-85
2021/12/20 07:30:07;;;;;;;8.40;6.10;;;;;;;0.05;84.24;100439.00;4958200;28;20688;-84
2021/12/20 07:32:33;;;;;;;8.68;5.68;;;;;;;0.07;84.06;100432.09;4949013;28;20618;-84
2021/12/20 07:34:58;;;;;;;7.80;5.60;;;;;;;0.09;84.13;100431.22;4952057;28;20243;-85
2021/12/20 07:37:26;;;;;;;6.30;5.07;;;;;;;0.11;84.39;100433.78;4947565;28;20493;-85
2021/12/20 07:39:52;;;;;;;9.23;5.68;;;;;;;0.13;84.06;100442.38;4949884;28;20200;-86
2021/12/20 07:42:17;;;;;;;8.70;5.53;;;;;;;0.15;84.53;100446.66;4938420;28;20688;-86
2021/12/20 07:44:44;;;;;;;12.53;5.73;;;;;;;0.16;83.85;100453.56;4950463;28;20208;-83
2021/12/20 07:47:09;;;;;;;8.48;6.55;;;;;;;0.16;83.98;100451.00;4951603;28;20219;-85
2021/12/20 07:49:35;;;;;;;9.03;5.63;;;;;;;0.17;84.15;100454.44;4952271;28;20225;-85
2021/12/20 07:52:03;;;;;;;5.97;4.38;;;;;;;0.18;83.99;100456.13;4927751;28;20299;-86
2021/12/20 07:54:29;;;;;;;7.07;5.93;;;;;;;0.20;83.82;100457.84;4953308;28;20223;-84
2021/12/20 07:56:54;;;;;;;8.87;5.50;;;;;;;0.22;83.73;100456.09;4945273;28;20604;-84
2021/12/20 07:59:20;;;;;;;8.33;5.20;;;;;;;0.21;83.24;100459.53;4951140;28;20270;-85
2021/12/20 08:01:45;;;;;;;7.67;6.73;;;;;;;0.30;83.56;100460.31;4945728;28;20497;-86
2021/12/20 08:04:11;;;;;;;8.47;5.80;;;;;;;0.28;83.17;100467.25;4948791;28;20464;-85
2021/12/20 08:06:36;;;;;;;9.40;6.30;;;;;;;0.28;83.33;100462.94;4951687;28;20220;-85
2021/12/20 08:09:03;;;;;;;9.83;6.37;;;;;;;0.31;83.12;100457.75;4952097;28;20208;-86
2021/12/20 08:11:29;;;;;;;8.02;6.13;;;;;;;0.33;83.16;100462.91;4949061;28;20343;-86
2021/12/20 08:13:54;;;;;;;7.10;5.87;;;;;;;0.34;83.25;100462.88;4949407;28;20667;-86
2021/12/20 08:16:20;;;;;;;7.37;6.10;;;;;;;0.37;83.00;100462.84;4946936;28;20208;-85
2021/12/20 08:18:46;;;;;;;5.97;5.37;;;;;;;0.39;82.95;100468.88;4945908;28;20201;-85
2021/12/20 08:21:14;;;;;;;6.78;5.43;;;;;;;0.39;82.59;100470.63;4947294;28;20530;-86
2021/12/20 08:23:40;;;;;;;7.43;5.45;;;;;;;0.39;82.88;100465.44;4947516;28;20263;-85
2021/12/20 08:26:07;;;;;;;6.45;5.80;;;;;;;0.39;82.63;100466.28;4948373;28;20252;-85
2021/12/20 08:28:35;;;;;;;9.88;5.65;;;;;;;0.40;82.82;100472.31;4945774;28;21162;-84
2021/12/20 08:31:02;;;;;;;10.57;5.93;;;;;;;0.41;82.95;100466.28;4950828;28;21395;-86
2021/12/20 08:33:28;;;;;;;9.15;6.47;;;;;;;0.39;83.06;100466.28;4947416;28;20546;-84
2021/12/20 08:35:54;;;;;;;8.35;5.70;;;;;;;0.40;82.99;100467.16;4944817;28;20220;-84
2021/12/20 08:38:20;;;;;;;6.37;5.77;;;;;;;0.41;82.84;100463.72;4946438;28;20224;-85
2021/12/20 08:40:47;;;;;;;5.22;4.45;;;;;;;0.47;82.81;100462.81;4949059;28;20204;-85
2021/12/20 08:43:14;;;;;;;7.15;4.63;;;;;;;0.51;82.69;100470.50;4950701;28;20930;-86
2021/12/20 08:45:40;;;;;;;6.65;4.55;;;;;;;0.52;82.45;100469.63;4957798;28;20352;-85
2021/12/20 08:48:06;;;;;;;7.50;6.07;;;;;;;0.55;82.12;100466.16;4957103;28;20284;-85
2021/12/20 08:50:32;;;;;;;8.07;5.32;;;;;;;0.57;82.67;100461.84;4949881;28;20244;-85
2021/12/20 08:52:58;;;;;;;7.50;5.07;;;;;;;0.60;82.11;100469.56;4955412;28;20255;-85
2021/12/20 08:55:24;;;;;;;5.73;4.37;;;;;;;0.62;82.08;100471.28;4951886;28;20464;-85
2021/12/20 08:57:50;;;;;;;8.80;5.18;;;;;;;0.66;82.15;100457.44;4949119;28;20206;-84
2021/12/20 09:00:22;;;;;;;9.73;4.70;;;;;;;0.73;81.70;100466.00;4950612;28;20556;-85
2021/12/20 09:02:48;;;;;;;7.18;5.55;;;;;;;0.85;81.68;100465.03;4953351;28;20460;-84
2021/12/20 09:05:15;;;;;;;9.27;5.40;;;;;;;0.98;81.47;100466.59;4954486;28;20297;-84
2021/12/20 09:07:41;;;;;;;6.25;5.57;;;;;;;1.14;81.22;100461.28;4966480;28;20487;-85
2021/12/20 09:10:09;;;;;;;8.05;5.78;;;;;;;1.32;80.47;100463.63;4969106;28;20212;-85
2021/12/20 09:12:35;;;;;;;9.60;5.22;;;;;;;1.42;80.10;100452.28;4958668;28;20205;-85
2021/12/20 09:15:02;;;;;;;8.95;5.97;;;;;;;1.46;79.57;100456.56;4959413;28;20713;-84
2021/12/20 09:17:27;;;;;;;5.35;4.60;;;;;;;1.48;79.61;100462.56;4967021;28;20208;-85
2021/12/20 09:19:53;;;;;;;5.43;4.80;;;;;;;1.48;79.69;100457.38;4965350;28;20225;-85
2021/12/20 09:22:26;;;;;;;8.63;4.45;;;;;;;1.45;79.03;100467.78;4958002;28;20616;-84
2021/12/20 09:24:52;;;;;;;9.80;6.10;;;;;;;1.42;79.26;100464.38;4948729;28;20284;-85
2021/12/20 09:27:17;;;;;;;7.20;5.10;;;;;;;1.37;79.54;100464.44;4960076;28;20728;-84
2021/12/20 09:29:43;;;;;;;7.87;4.90;;;;;;;1.35;79.51;100463.59;4952552;28;20219;-84
2021/12/20 09:32:09;;;;;;;9.10;6.82;;;;;;;1.45;79.71;100475.53;4947468;28;20834;-84
2021/12/20 09:34:34;;;;;;;7.43;5.43;;;;;;;1.42;79.56;100469.56;4951731;28;20721;-83
2021/12/20 09:37:04;;;;;;;14.07;7.10;;;;;;;1.44;79.37;100465.22;4947790;28;20212;-85
2021/12/20 09:39:31;;;;;;;9.48;6.47;;;;;;;1.55;79.56;100468.53;4950792;28;20455;-84
2021/12/20 09:42:05;;;;;;;12.23;6.05;;;;;;;1.64;79.27;100454.59;4957823;28;20212;-85
2021/12/20 09:44:32;;;;;;;9.07;6.13;;;;;;;1.73;78.72;100457.06;4952133;28;20212;-85
2021/12/20 09:46:59;;;;;;;8.30;7.05;;;;;;;1.81;78.44;100465.59;4948149;28;20703;-85
2021/12/20 09:49:27;;;;;;;8.85;6.25;;;;;;;1.88;78.45;100462.03;4954910;28;20276;-84
2021/12/20 09:51:54;;;;;;;9.70;5.68;;;;;;;1.95;78.14;100473.16;4944996;28;20220;-85
2021/12/20 09:54:20;;;;;;;8.27;6.43;;;;;;;1.95;77.79;100473.16;4952465;28;20213;-84
2021/12/20 09:56:48;;;;;;;8.77;6.60;;;;;;;1.99;78.08;100467.91;4947142;28;20208;-84
2021/12/20 09:59:18;;;;;;;10.90;6.35;;;;;;;2.05;77.96;100461.75;4950213;28;20737;-85
2021/12/20 10:01:44;;;;;;;7.15;5.38;;;;;;;2.19;77.99;100457.25;4942092;28;20657;-85
2021/12/20 10:04:10;;;;;;;7.30;6.00;;;;;;;2.44;77.22;100451.66;4947588;28;20222;-85
2021/12/20 10:06:36;;;;;;;8.03;5.70;;;;;;;2.62;76.51;100440.13;4950865;28;20224;-85
2021/12/20 10:09:09;;;;;;;8.65;5.82;;;;;;;2.55;76.51;100443.69;4949332;28;20209;-85
2021/12/20 10:11:37;;;;;;;9.85;6.45;;;;;;;2.40;76.39;100445.69;4952915;28;20259;-85
2021/12/20 10:14:11;;;;;;;7.80;6.20;;;;;;;2.32;76.93;100444.06;4949517;28;20251;-85
2021/12/20 10:16:40;;;;;;;9.00;6.03;;;;;;;2.18;76.78;100449.47;4950654;28;20666;-86
2021/12/20 10:19:26;;;;;;;8.75;7.43;;;;;;;2.18;77.00;100436.53;4954044;28;20256;-83
2021/12/20 10:21:51;;;;;;;9.70;6.90;;;;;;;2.29;76.58;100451.91;4949269;28;20209;-85
2021/12/20 10:24:38;;;;;;;12.10;7.63;;;;;;;2.30;77.10;100438.94;4945666;28;20911;-85
2021/12/20 10:27:04;;;;;;;8.43;6.15;;;;;;;2.30;76.71;100432.91;4945633;28;20384;-84
2021/12/20 10:29:30;;;;;;;10.00;6.67;;;;;;;2.26;77.15;100437.25;4944953;28;20685;-84
2021/12/20 10:31:56;;;;;;;8.88;6.82;;;;;;;2.24;77.10;100432.97;4959990;28;21113;-85
2021/12/20 10:34:35;;;;;;;8.27;7.43;;;;;;;2.21;77.37;100423.50;4960297;28;20274;-85
2021/12/20 10:37:04;;;;;;;8.95;7.20;;;;;;;2.21;77.17;100439.06;4955330;28;20208;-85
2021/12/20 10:39:48;;;;;;;9.50;6.80;;;;;;;2.21;77.38;100426.09;4952342;28;20213;-85
2021/12/20 10:42:18;;;;;;;8.80;7.82;;;;;;;2.27;76.93;100423.44;4948025;28;20208;-85
2021/12/20 10:44:44;;;;;;;9.88;6.72;;;;;;;2.32;77.13;100416.44;4950795;28;20556;-85
2021/12/20 10:47:28;;;;;;;10.17;7.17;;;;;;;2.42;77.23;100412.78;4939658;28;20223;-84
2021/12/20 10:49:54;;;;;;;7.60;6.80;;;;;;;2.51;76.94;100416.09;4949762;28;20414;-84
2021/12/20 10:52:31;;;;;;;9.07;6.87;;;;;;;2.50;76.36;100415.25;4948599;28;20235;-85
2021/12/20 10:54:56;;;;;;;8.45;6.97;;;;;;;2.53;76.12;100415.19;4943467;28;20208;-85
2021/12/20 10:57:28;;;;;;;9.23;6.87;;;;;;;2.56;76.40;100416.88;4950371;28;20235;-84
2021/12/20 11:00:17;;;;;;;10.82;7.03;;;;;;;2.56;76.27;100415.13;4943862;28;20197;-86
2021/12/20 11:05:38;;;;;;;8.90;6.90;;;;;;;2.75;76.05;100410.47;4940925;28;20220;-84
2021/12/20 11:11:11;;;;;;;12.00;8.30;;;;;;;2.82;75.39;100401.69;4940759;28;20232;-85
2021/12/20 11:13:38;;;;;;;8.05;6.55;;;;;;;2.88;75.76;100398.97;4945838;28;20252;-85
2021/12/20 11:16:27;;;;;;;10.05;7.75;;;;;;;2.98;75.56;100391.03;4954383;28;20623;-85
2021/12/20 11:19:11;;;;;;;9.98;6.63;;;;;;;3.06;75.48;100389.13;4950271;28;20206;-84
2021/12/20 11:21:44;;;;;;;11.63;8.88;;;;;;;3.13;75.11;100384.66;4955729;28;20709;-85
2021/12/20 11:24:15;;;;;;;7.53;6.55;;;;;;;3.17;74.96;100381.97;4941940;28;20244;-85
2021/12/20 11:26:41;;;;;;;9.80;7.47;;;;;;;3.23;74.86;100376.63;4949128;28;20323;-85
2021/12/20 11:29:07;;;;;;;12.00;7.22;;;;;;;3.28;74.96;100374.78;4947161;28;20835;-85
2021/12/20 11:31:32;;;;;;;8.53;7.33;;;;;;;3.33;74.59;100366.91;4945607;28;20212;-85
2021/12/20 11:34:01;;;;;;;8.90;7.87;;;;;;;3.37;74.35;100359.91;4948356;28;20468;-84
2021/12/20 11:36:27;;;;;;;9.50;6.95;;;;;;;3.45;74.21;100363.19;4947797;28;20678;-85
2021/12/20 11:38:53;;;;;;;10.33;7.10;;;;;;;3.53;74.33;100371.66;4948843;28;20247;-85
2021/12/20 11:41:18;;;;;;;10.57;7.23;;;;;;;3.53;73.49;100367.31;4946596;28;21139;-85
2021/12/20 11:43:46;;;;;;;10.77;7.00;;;;;;;3.55;73.68;100362.09;4951734;28;20212;-85
2021/12/20 11:46:13;;;;;;;11.65;7.97;;;;;;;3.44;73.85;100356.28;4950060;28;20312;-85
2021/12/20 11:48:41;;;;;;;12.63;8.00;;;;;;;3.46;73.98;100351.94;4950895;28;20219;-84
2021/12/20 11:51:07;;;;;;;10.82;7.32;;;;;;;3.46;74.45;100341.53;4947668;28;20216;-85
2021/12/20 11:53:42;;;;;;;11.02;7.75;;;;;;;3.51;74.58;100348.34;4940962;28;20291;-85
2021/12/20 11:56:08;;;;;;;8.90;7.18;;;;;;;3.53;74.41;100346.53;4948499;28;20425;-85